Time;durP1;ratioP1;P1;durP2;ratioP2;P2;SDS_P1;SDS_P2;PMS_P1;PMS_P2;Temp;Humidity;BMP_temperature;BMP_pressure;BME280_temperature;BME280_humidity;BME280_pressure;Samples;Min_cycle;Max_cycle;Signal;HPM_P1;HPM_P2
2022/10/25 00:01:45;;;;;;;3.65;2.20;;;22.30;99.90;;;;;;4971564;28;20664;-70
2022/10/25 00:04:17;;;;;;;3.95;2.10;;;22.30;99.90;;;;;;4972817;28;20209;-71
2022/10/25 00:06:48;;;;;;;6.82;2.10;;;22.30;99.90;;;;;;4967449;28;20205;-71
2022/10/25 00:09:19;;;;;;;2.95;1.88;;;22.30;99.90;;;;;;4971025;28;20208;-73
2022/10/25 00:11:50;;;;;;;2.58;1.80;;;22.20;99.90;;;;;;4964420;28;20200;-72
2022/10/25 00:14:23;;;;;;;3.97;1.92;;;22.10;99.90;;;;;;4973370;28;20207;-76
2022/10/25 00:16:57;;;;;;;2.90;1.80;;;22.00;99.90;;;;;;4957502;28;20204;-77
2022/10/25 00:19:28;;;;;;;5.05;2.22;;;22.00;99.90;;;;;;4966086;28;20213;-70
2022/10/25 00:21:59;;;;;;;4.45;2.03;;;22.00;99.90;;;;;;4987954;28;20545;-71
2022/10/25 00:24:30;;;;;;;3.30;2.00;;;22.00;99.90;;;;;;4970384;28;20568;-73
2022/10/25 00:27:01;;;;;;;2.10;1.67;;;22.00;99.90;;;;;;4968111;28;20211;-71
2022/10/25 00:29:34;;;;;;;11.45;6.57;;;22.00;99.90;;;;;;4962340;28;20207;-73
2022/10/25 00:32:06;;;;;;;4.28;2.95;;;22.00;99.90;;;;;;4965254;28;20200;-72
2022/10/25 00:34:37;;;;;;;4.45;2.10;;;22.00;99.90;;;;;;4967575;28;20200;-73
2022/10/25 00:37:08;;;;;;;4.90;1.90;;;22.10;99.90;;;;;;4969653;28;20238;-70
2022/10/25 00:39:39;;;;;;;3.45;1.90;;;22.10;99.90;;;;;;4967670;28;20216;-71
2022/10/25 00:42:12;;;;;;;4.15;2.20;;;22.40;99.90;;;;;;4968338;28;20200;-72
2022/10/25 00:44:56;;;;;;;2.20;1.90;;;22.50;99.90;;;;;;4971974;28;20203;-79
2022/10/25 00:47:46;;;;;;;3.35;1.70;;;22.60;99.90;;;;;;4968104;28;20567;-70
2022/10/25 00:50:24;;;;;;;2.13;1.40;;;22.90;99.90;;;;;;4967092;28;20205;-70
2022/10/25 00:52:58;;;;;;;3.33;1.55;;;23.00;99.90;;;;;;4990093;28;20199;-72
2022/10/25 00:55:30;;;;;;;1.83;1.50;;;23.20;99.90;;;;;;4979533;28;20196;-72
2022/10/25 00:58:08;;;;;;;2.95;1.90;;;23.40;99.90;;;;;;4964189;28;20224;-70
2022/10/25 01:00:41;;;;;;;3.45;1.80;;;23.50;99.90;;;;;;4958381;28;20188;-70
2022/10/25 01:03:12;;;;;;;3.28;1.45;;;23.50;99.90;;;;;;4967230;28;20637;-69
2022/10/25 01:05:45;;;;;;;3.25;1.85;;;23.40;99.90;;;;;;4964557;28;20690;-70
2022/10/25 01:08:17;;;;;;;6.57;2.55;;;23.30;99.90;;;;;;4989058;28;20673;-76
2022/10/25 01:10:49;;;;;;;3.90;1.50;;;23.30;99.90;;;;;;4993955;28;20199;-70
2022/10/25 01:13:20;;;;;;;2.25;1.27;;;23.30;99.90;;;;;;4982737;28;20200;-69
2022/10/25 01:16:01;;;;;;;10.27;3.70;;;23.20;99.90;;;;;;4980150;28;20199;-70
2022/10/25 01:18:42;;;;;;;4.63;1.73;;;23.20;99.90;;;;;;4975160;28;20278;-70
2022/10/25 01:21:38;;;;;;;3.13;1.40;;;23.40;99.90;;;;;;4973496;28;20613;-71
2022/10/25 01:24:39;;;;;;;1.73;1.20;;;23.90;99.90;;;;;;4963421;28;20232;-70
2022/10/25 01:27:23;;;;;;;2.72;1.20;;;24.10;99.90;;;;;;4924884;28;20559;-70
2022/10/25 01:30:10;;;;;;;4.40;1.50;;;24.30;99.90;;;;;;4954968;28;20204;-72
2022/10/25 01:32:53;;;;;;;5.45;1.92;;;24.30;99.90;;;;;;4976030;28;20207;-69
2022/10/25 01:35:30;;;;;;;1.92;1.23;;;24.30;99.90;;;;;;4960986;23;20257;-72
2022/10/25 01:38:28;;;;;;;2.33;1.08;;;24.20;99.90;;;;;;4959148;28;20705;-73
2022/10/25 01:41:10;;;;;;;1.27;1.17;;;24.40;99.90;;;;;;4966925;28;20676;-77
2022/10/25 01:43:49;;;;;;;1.48;1.20;;;24.40;99.90;;;;;;4959021;28;20570;-72
2022/10/25 01:46:27;;;;;;;2.08;1.10;;;24.60;99.90;;;;;;4956731;28;20197;-76
2022/10/25 01:49:05;;;;;;;1.52;1.42;;;24.70;99.90;;;;;;4966000;28;20188;-72
2022/10/25 01:51:39;;;;;;;1.42;1.30;;;24.80;99.90;;;;;;4966079;28;20196;-72
2022/10/25 01:54:22;;;;;;;1.42;1.33;;;24.90;99.90;;;;;;4965177;28;20200;-73
2022/10/25 01:57:08;;;;;;;1.67;1.30;;;24.90;99.90;;;;;;4963451;28;20215;-72
2022/10/25 02:00:04;;;;;;;2.40;1.45;;;25.00;99.90;;;;;;4965599;28;20219;-73
2022/10/25 02:02:41;;;;;;;1.90;1.50;;;24.90;99.90;;;;;;4955756;28;20765;-72
2022/10/25 02:05:22;;;;;;;1.58;1.48;;;24.90;99.90;;;;;;4963991;28;20285;-73
2022/10/25 02:08:04;;;;;;;1.70;1.55;;;24.90;99.90;;;;;;4964104;28;20636;-75
2022/10/25 02:10:40;;;;;;;20.52;14.48;;;24.80;99.90;;;;;;4968100;28;20196;-74
2022/10/25 02:13:20;;;;;;;7.93;5.68;;;24.80;99.90;;;;;;4966733;28;20192;-74
2022/10/25 02:16:00;;;;;;;3.80;1.70;;;24.90;99.90;;;;;;4963973;28;20219;-76
2022/10/25 02:18:36;;;;;;;2.20;2.00;;;25.00;99.90;;;;;;4960800;28;20215;-75
2022/10/25 02:21:11;;;;;;;2.00;1.80;;;25.30;99.90;;;;;;4956901;28;20193;-73
2022/10/25 02:23:42;;;;;;;1.60;1.30;;;25.40;99.90;;;;;;4963572;28;20184;-73
2022/10/25 02:26:14;;;;;;;1.30;1.20;;;25.60;99.90;;;;;;4965087;28;20526;-72
2022/10/25 02:28:46;;;;;;;2.13;1.48;;;25.60;99.90;;;;;;4962328;28;20208;-75
2022/10/25 02:31:22;;;;;;;1.90;1.60;;;25.70;99.90;;;;;;4965885;28;20545;-75
2022/10/25 02:33:53;;;;;;;2.53;1.50;;;26.00;99.90;;;;;;4962201;28;20196;-75
2022/10/25 02:36:27;;;;;;;1.25;1.15;;;26.30;99.90;;;;;;4958440;28;20247;-73
2022/10/25 02:38:58;;;;;;;2.17;1.00;;;26.40;99.90;;;;;;4950545;28;20229;-76
2022/10/25 02:41:29;;;;;;;1.30;1.20;;;26.40;99.90;;;;;;4938383;29;20556;-74
2022/10/25 02:44:01;;;;;;;1.42;1.27;;;26.30;99.90;;;;;;4938606;29;20200;-74
2022/10/25 02:46:32;;;;;;;1.73;1.20;;;26.30;99.90;;;;;;4938593;29;20193;-74
2022/10/25 02:49:03;;;;;;;1.55;1.30;;;26.20;99.90;;;;;;4945094;29;20223;-75
2022/10/25 02:51:36;;;;;;;2.05;1.15;;;26.20;99.90;;;;;;4954302;28;20209;-74
2022/10/25 02:54:07;;;;;;;1.30;1.20;;;26.20;99.90;;;;;;4956360;29;20208;-74
2022/10/25 02:56:39;;;;;;;2.35;1.30;;;26.10;99.90;;;;;;4956755;29;20197;-71
2022/10/25 02:59:12;;;;;;;2.17;1.40;;;26.10;99.90;;;;;;4957262;29;20594;-74
2022/10/25 03:01:43;;;;;;;8.40;1.92;;;25.90;99.90;;;;;;4957421;29;20193;-74
2022/10/25 03:04:14;;;;;;;1.42;1.20;;;25.80;99.90;;;;;;4938115;29;20205;-74
2022/10/25 03:06:47;;;;;;;1.65;1.50;;;25.70;99.90;;;;;;4946529;29;20640;-72
2022/10/25 03:09:19;;;;;;;1.48;1.30;;;25.60;99.90;;;;;;4957404;29;20212;-72
2022/10/25 03:11:50;;;;;;;1.30;1.20;;;25.50;99.90;;;;;;4951870;29;20193;-75
2022/10/25 03:14:21;;;;;;;2.35;1.30;;;25.40;99.90;;;;;;4937837;29;20201;-75
2022/10/25 03:16:52;;;;;;;1.75;1.65;;;25.40;99.90;;;;;;4948892;29;20208;-76
2022/10/25 03:19:23;;;;;;;1.55;1.40;;;25.40;99.90;;;;;;4956849;29;20217;-74
2022/10/25 03:21:56;;;;;;;2.15;1.67;;;25.30;99.90;;;;;;4957250;29;20193;-73
2022/10/25 03:24:27;;;;;;;3.63;2.00;;;25.30;99.90;;;;;;4956832;29;20193;-75
2022/10/25 03:26:58;;;;;;;3.95;1.67;;;25.20;99.90;;;;;;4942058;29;20209;-72
2022/10/25 03:29:29;;;;;;;3.25;1.88;;;25.10;99.90;;;;;;4937639;29;20205;-76
2022/10/25 03:32:00;;;;;;;6.45;2.55;;;25.30;99.90;;;;;;4937654;29;20197;-72
2022/10/25 03:34:31;;;;;;;5.50;2.58;;;25.50;99.90;;;;;;4943361;28;20205;-73
2022/10/25 03:37:04;;;;;;;7.25;2.40;;;25.60;99.90;;;;;;4951880;28;20237;-74
2022/10/25 03:39:35;;;;;;;3.95;2.13;;;25.60;99.90;;;;;;4955837;29;20221;-73
2022/10/25 03:42:06;;;;;;;3.78;2.40;;;25.50;99.90;;;;;;4956752;29;20197;-72
2022/10/25 03:44:37;;;;;;;4.63;1.77;;;25.40;99.90;;;;;;4956763;29;20197;-72
2022/10/25 03:47:08;;;;;;;4.38;2.00;;;25.40;99.90;;;;;;4954771;29;20560;-73
2022/10/25 03:49:39;;;;;;;4.35;2.40;;;25.50;99.90;;;;;;4954276;29;20208;-74
2022/10/25 03:52:13;;;;;;;5.07;1.98;;;25.50;99.90;;;;;;4939308;29;20198;-72
2022/10/25 03:54:44;;;;;;;4.28;2.40;;;25.40;99.90;;;;;;4936860;29;20205;-72
2022/10/25 03:57:15;;;;;;;5.63;2.50;;;25.50;99.90;;;;;;4937279;29;20200;-74
2022/10/25 03:59:46;;;;;;;5.50;2.30;;;25.60;99.90;;;;;;4935239;29;20229;-76
2022/10/25 04:02:17;;;;;;;4.00;2.25;;;25.70;99.90;;;;;;4951847;29;20200;-73
2022/10/25 04:04:48;;;;;;;4.80;2.40;;;25.80;99.90;;;;;;4950289;29;20215;-72
2022/10/25 04:07:22;;;;;;;4.03;2.40;;;25.90;99.90;;;;;;4941448;29;20194;-74
2022/10/25 04:09:53;;;;;;;3.55;2.38;;;25.90;99.90;;;;;;4938218;29;20201;-73
2022/10/25 04:12:24;;;;;;;4.60;2.50;;;25.90;99.90;;;;;;4943537;29;20552;-73
2022/10/25 04:14:55;;;;;;;7.03;2.88;;;25.90;99.90;;;;;;4944078;29;20280;-72
2022/10/25 04:17:26;;;;;;;7.30;2.60;;;25.90;99.90;;;;;;4952389;29;20197;-74
2022/10/25 04:19:57;;;;;;;5.20;2.80;;;25.70;99.90;;;;;;4954182;29;20582;-74
2022/10/25 04:22:30;;;;;;;4.35;2.70;;;25.60;99.90;;;;;;4941837;29;20675;-74
2022/10/25 04:25:01;;;;;;;5.43;2.78;;;25.40;99.90;;;;;;4948497;28;20225;-76
2022/10/25 04:27:32;;;;;;;8.02;2.33;;;25.30;99.90;;;;;;4964662;28;20207;-75
2022/10/25 04:30:03;;;;;;;5.40;2.60;;;25.00;99.90;;;;;;4952652;29;20197;-75
2022/10/25 04:32:34;;;;;;;4.05;2.38;;;24.70;99.90;;;;;;4954876;28;20189;-75
2022/10/25 04:35:06;;;;;;;9.77;3.38;;;24.50;99.90;;;;;;4942895;28;20221;-78
2022/10/25 04:37:39;;;;;;;8.85;2.63;;;24.30;99.90;;;;;;4952422;28;20229;-75
2022/10/25 04:40:11;;;;;;;6.50;2.53;;;24.20;99.90;;;;;;4963319;28;20223;-76
2022/10/25 04:42:42;;;;;;;7.47;3.03;;;24.10;99.90;;;;;;4952333;29;20200;-76
2022/10/25 04:45:13;;;;;;;5.15;2.75;;;24.00;99.90;;;;;;4952990;29;20216;-74
2022/10/25 04:47:44;;;;;;;5.72;2.97;;;24.00;99.90;;;;;;4948012;29;20202;-76
2022/10/25 04:50:15;;;;;;;8.10;3.03;;;24.00;99.90;;;;;;4946741;29;20205;-76
2022/10/25 04:52:48;;;;;;;7.28;2.97;;;23.90;99.90;;;;;;4944345;28;20207;-76
2022/10/25 04:55:19;;;;;;;6.38;2.80;;;23.80;99.90;;;;;;4955138;28;20200;-79
2022/10/25 04:57:52;;;;;;;4.00;2.88;;;23.70;99.90;;;;;;4951688;29;20196;-76
2022/10/25 05:00:23;;;;;;;6.05;2.80;;;23.60;99.90;;;;;;4953965;29;20240;-77
2022/10/25 05:02:55;;;;;;;7.78;3.20;;;23.50;99.90;;;;;;4949150;28;20201;-78
2022/10/25 05:05:27;;;;;;;10.25;3.63;;;23.50;99.90;;;;;;4950849;29;20201;-75
2022/10/25 05:08:00;;;;;;;10.63;4.13;;;23.40;99.90;;;;;;4945192;28;20217;-79
2022/10/25 05:10:31;;;;;;;8.27;3.88;;;23.30;99.90;;;;;;4936447;29;20197;-78
2022/10/25 05:13:02;;;;;;;8.70;3.90;;;23.30;99.90;;;;;;4953926;29;20212;-75
2022/10/25 05:15:34;;;;;;;9.45;3.60;;;23.10;99.90;;;;;;4941247;29;20619;-80
2022/10/25 05:18:05;;;;;;;10.73;3.95;;;23.00;99.90;;;;;;4945461;29;20196;-78
2022/10/25 05:20:36;;;;;;;6.72;3.47;;;23.00;99.90;;;;;;4951352;29;20233;-72
2022/10/25 05:23:09;;;;;;;6.80;3.22;;;22.90;99.90;;;;;;4951548;29;20205;-79
2022/10/25 05:25:40;;;;;;;6.72;3.08;;;22.80;99.90;;;;;;4948353;29;20205;-75
2022/10/25 05:28:11;;;;;;;8.57;3.55;;;22.80;99.90;;;;;;4954742;28;20200;-74
2022/10/25 05:30:44;;;;;;;7.05;3.10;;;22.70;99.90;;;;;;4956443;28;20204;-79
2022/10/25 05:33:15;;;;;;;5.32;2.42;;;22.70;99.90;;;;;;4954861;29;20193;-77
2022/10/25 05:35:46;;;;;;;3.90;2.15;;;22.60;99.90;;;;;;4954711;28;20723;-77
2022/10/25 05:38:19;;;;;;;6.05;2.53;;;22.60;99.90;;;;;;4952138;29;20684;-79
2022/10/25 05:40:56;;;;;;;7.00;1.90;;;22.50;99.90;;;;;;4954874;29;20703;-77
2022/10/25 05:43:28;;;;;;;4.60;1.55;;;22.50;99.90;;;;;;4954952;29;20192;-78
2022/10/25 05:46:06;;;;;;;2.70;1.50;;;22.50;99.90;;;;;;4943360;29;20210;-79
2022/10/25 05:48:38;;;;;;;2.45;1.30;;;22.50;99.90;;;;;;4951555;28;20200;-78
2022/10/25 05:51:14;;;;;;;4.03;1.27;;;22.50;99.90;;;;;;4967044;28;20203;-77
2022/10/25 05:53:51;;;;;;;2.75;1.20;;;22.50;99.90;;;;;;4960065;28;20272;-75
2022/10/25 05:56:24;;;;;;;5.22;1.23;;;22.50;99.90;;;;;;4956615;28;20224;-77
2022/10/25 05:58:57;;;;;;;1.50;1.20;;;22.40;99.90;;;;;;4963891;28;20279;-78
2022/10/25 06:01:30;;;;;;;1.73;1.20;;;22.40;99.90;;;;;;4962414;28;20224;-77
2022/10/25 06:04:01;;;;;;;3.33;1.23;;;22.40;99.90;;;;;;4962209;28;20232;-77
2022/10/25 06:06:32;;;;;;;2.28;1.25;;;22.30;99.90;;;;;;4955955;28;20209;-79
2022/10/25 06:09:06;;;;;;;4.82;1.80;;;22.30;99.90;;;;;;4954435;28;20208;-74
2022/10/25 06:11:40;;;;;;;2.97;2.15;;;22.30;99.90;;;;;;4951970;28;20201;-79
2022/10/25 06:14:13;;;;;;;3.72;1.63;;;22.40;99.90;;;;;;4946168;28;20208;-78
2022/10/25 06:16:50;;;;;;;2.05;1.27;;;22.40;99.90;;;;;;4943725;28;20205;-74
2022/10/25 06:19:22;;;;;;;7.82;2.30;;;22.50;99.90;;;;;;4944026;29;20196;-75
2022/10/25 06:21:56;;;;;;;3.35;1.95;;;22.60;99.90;;;;;;4961033;28;20679;-78
2022/10/25 06:24:34;;;;;;;3.35;1.40;;;22.70;99.90;;;;;;4936115;29;20248;-75
2022/10/25 06:27:07;;;;;;;4.85;1.80;;;22.80;99.90;;;;;;4930854;28;20566;-76
2022/10/25 06:29:39;;;;;;;4.43;2.20;;;22.90;99.90;;;;;;4938152;29;20253;-75
2022/10/25 06:32:15;;;;;;;3.08;1.90;;;23.00;99.90;;;;;;4963782;28;20208;-77
2022/10/25 06:34:46;;;;;;;3.38;2.00;;;23.10;99.90;;;;;;4944107;28;20708;-76
2022/10/25 06:37:17;;;;;;;4.18;2.15;;;23.20;99.90;;;;;;4953240;28;20233;-79
2022/10/25 06:39:50;;;;;;;5.38;2.63;;;23.20;99.90;;;;;;4963689;28;20683;-77
2022/10/25 06:42:21;;;;;;;8.60;2.78;;;23.30;99.90;;;;;;4961141;28;20201;-78
2022/10/25 06:44:51;;;;;;;8.07;2.80;;;23.40;99.90;;;;;;4960084;28;20201;-78
2022/10/25 06:47:22;;;;;;;7.32;3.13;;;23.40;99.90;;;;;;4953728;28;20207;-79
2022/10/25 06:49:53;;;;;;;6.38;3.20;;;23.50;99.90;;;;;;4962052;28;20209;-77
2022/10/25 06:52:24;;;;;;;6.68;2.47;;;23.60;99.90;;;;;;4960379;28;20265;-78
2022/10/25 06:54:56;;;;;;;5.30;2.45;;;23.60;99.90;;;;;;4966017;28;20296;-77
2022/10/25 06:57:27;;;;;;;7.25;2.70;;;23.60;99.90;;;;;;4958613;28;20221;-79
2022/10/25 06:59:59;;;;;;;7.43;3.03;;;23.50;99.90;;;;;;4957898;28;20221;-78
2022/10/25 07:02:30;;;;;;;10.50;2.97;;;23.50;99.90;;;;;;4960034;28;20644;-76
2022/10/25 07:05:01;;;;;;;10.65;3.30;;;23.40;99.90;;;;;;4961654;28;20648;-78
2022/10/25 07:07:32;;;;;;;7.88;3.40;;;23.30;99.90;;;;;;4965559;28;20276;-76
2022/10/25 07:10:04;;;;;;;16.98;4.22;;;23.30;99.90;;;;;;4963461;28;20677;-75
2022/10/25 07:12:37;;;;;;;14.10;4.15;;;23.10;99.90;;;;;;4949643;28;20197;-76
2022/10/25 07:15:09;;;;;;;13.60;4.53;;;23.00;99.90;;;;;;4946045;28;20196;-79
2022/10/25 07:17:40;;;;;;;11.30;4.43;;;22.90;99.90;;;;;;4960072;28;20664;-77
2022/10/25 07:20:11;;;;;;;8.52;4.13;;;22.80;99.90;;;;;;4965962;28;20223;-79
2022/10/25 07:22:42;;;;;;;11.77;4.30;;;22.70;99.90;;;;;;4964797;28;20188;-77
2022/10/25 07:25:15;;;;;;;11.02;4.28;;;22.70;99.90;;;;;;4959580;28;20211;-77
2022/10/25 07:27:45;;;;;;;8.85;4.53;;;22.70;99.90;;;;;;4964924;28;20196;-78
2022/10/25 07:30:16;;;;;;;10.15;6.30;;;22.60;99.90;;;;;;4954507;28;20197;-77
2022/10/25 07:32:47;;;;;;;9.63;4.70;;;22.60;99.90;;;;;;4959221;28;20203;-78
2022/10/25 07:35:18;;;;;;;13.13;5.00;;;22.60;99.90;;;;;;4955758;28;20227;-77
2022/10/25 07:37:49;;;;;;;15.85;9.70;;;22.50;99.90;;;;;;4956749;28;20320;-77
2022/10/25 07:40:21;;;;;;;12.43;4.28;;;22.40;99.90;;;;;;4962400;28;20680;-79
2022/10/25 07:42:52;;;;;;;12.10;4.57;;;22.30;99.90;;;;;;4963524;28;20664;-76
2022/10/25 07:45:23;;;;;;;9.10;4.43;;;22.30;99.90;;;;;;4955841;28;20683;-72
2022/10/25 07:47:54;;;;;;;6.93;4.22;;;22.20;99.90;;;;;;4964690;28;20209;-76
2022/10/25 07:50:25;;;;;;;11.80;3.90;;;22.10;99.90;;;;;;4960166;28;20195;-73
2022/10/25 07:52:57;;;;;;;11.18;4.05;;;22.00;99.90;;;;;;4957329;28;20205;-78
2022/10/25 07:55:30;;;;;;;7.72;3.88;;;21.90;99.90;;;;;;4969141;28;20271;-76
2022/10/25 07:58:03;;;;;;;6.53;3.92;;;21.90;99.90;;;;;;4961353;28;20201;-76
2022/10/25 08:00:34;;;;;;;10.05;3.72;;;21.80;99.90;;;;;;4959112;28;20731;-78
2022/10/25 08:03:05;;;;;;;8.18;3.30;;;21.80;99.90;;;;;;4954395;28;20280;-76
2022/10/25 08:05:36;;;;;;;7.38;3.28;;;21.70;99.90;;;;;;4953561;28;20204;-76
2022/10/25 08:08:07;;;;;;;9.02;3.60;;;21.70;99.90;;;;;;4962844;28;20207;-76
2022/10/25 08:10:39;;;;;;;11.35;3.70;;;21.60;99.90;;;;;;4957435;28;20194;-76
2022/10/25 08:13:10;;;;;;;8.55;3.80;;;21.60;99.90;;;;;;4961281;28;20201;-79
2022/10/25 08:15:41;;;;;;;8.65;4.00;;;21.50;99.90;;;;;;4960849;28;20200;-77
2022/10/25 08:18:12;;;;;;;8.98;3.65;;;21.50;99.90;;;;;;4959188;28;20731;-80
2022/10/25 08:20:43;;;;;;;6.85;3.40;;;21.50;99.90;;;;;;4952393;28;20614;-77
2022/10/25 08:23:14;;;;;;;13.32;4.13;;;21.50;99.90;;;;;;4963218;28;20291;-76
2022/10/25 08:25:47;;;;;;;11.75;3.22;;;21.40;99.90;;;;;;4956935;28;20672;-77
2022/10/25 08:28:18;;;;;;;7.25;3.50;;;21.40;99.90;;;;;;4953983;28;20213;-80
2022/10/25 08:30:49;;;;;;;8.45;3.22;;;21.30;99.90;;;;;;4952550;28;20215;-79
2022/10/25 08:33:20;;;;;;;8.45;3.13;;;21.30;99.90;;;;;;4956935;28;20204;-79
2022/10/25 08:35:50;;;;;;;9.93;3.60;;;21.20;99.90;;;;;;4955278;28;20236;-79
2022/10/25 08:38:21;;;;;;;11.20;3.40;;;21.10;99.90;;;;;;4958873;28;20211;-79
2022/10/25 08:41:01;;;;;;;9.32;3.00;;;21.10;99.90;;;;;;4955433;28;20217;-79
2022/10/25 08:43:53;;;;;;;8.35;3.20;;;21.00;99.90;;;;;;4950399;28;20217;-79
2022/10/25 08:46:29;;;;;;;10.23;3.22;;;21.00;99.90;;;;;;4957274;28;20279;-78
2022/10/25 08:49:11;;;;;;;8.32;2.92;;;21.00;99.90;;;;;;4955466;28;20215;-79
2022/10/25 08:51:44;;;;;;;7.53;3.10;;;20.90;99.90;;;;;;4957893;28;20199;-79
2022/10/25 08:54:26;;;;;;;12.50;3.50;;;20.90;99.90;;;;;;4962255;28;20197;-78
2022/10/25 08:57:07;;;;;;;6.53;2.63;;;20.80;99.90;;;;;;4953431;28;20518;-80
2022/10/25 08:59:42;;;;;;;9.95;3.20;;;20.80;99.90;;;;;;4955001;28;20201;-78
2022/10/25 09:02:24;;;;;;;7.38;3.05;;;20.70;99.90;;;;;;4952456;28;20228;-79
2022/10/25 09:04:55;;;;;;;7.00;2.80;;;20.70;99.90;;;;;;4963054;28;20536;-78
2022/10/25 09:07:46;;;;;;;9.57;3.10;;;20.70;99.90;;;;;;4960879;28;20196;-77
2022/10/25 09:10:27;;;;;;;8.45;3.40;;;20.70;99.90;;;;;;4955873;28;20283;-79
2022/10/25 09:13:07;;;;;;;8.05;3.08;;;20.60;99.90;;;;;;4952202;28;20204;-78
2022/10/25 09:15:54;;;;;;;11.20;3.28;;;20.60;99.90;;;;;;4956256;28;20207;-80
2022/10/25 09:18:33;;;;;;;6.38;2.97;;;20.60;99.90;;;;;;4955547;28;20251;-80
2022/10/25 09:21:09;;;;;;;6.32;2.50;;;20.60;99.90;;;;;;4953171;28;20224;-80
2022/10/25 09:23:42;;;;;;;7.00;2.67;;;20.50;99.90;;;;;;4957254;28;20661;-78
2022/10/25 09:26:18;;;;;;;9.50;3.10;;;20.50;99.90;;;;;;4960030;28;20198;-79
2022/10/25 09:29:01;;;;;;;8.57;2.75;;;20.40;99.90;;;;;;4962306;28;20199;-77
2022/10/25 09:31:37;;;;;;;7.60;2.80;;;20.40;99.90;;;;;;4958127;28;20208;-77
2022/10/25 09:34:10;;;;;;;12.35;3.15;;;20.30;99.90;;;;;;4959613;28;20211;-78
2022/10/25 09:36:45;;;;;;;8.73;2.95;;;20.30;99.90;;;;;;4958890;28;20232;-80
2022/10/25 09:39:23;;;;;;;7.30;2.72;;;20.30;99.90;;;;;;4951452;28;20209;-77
2022/10/25 09:41:56;;;;;;;6.05;3.05;;;20.30;99.90;;;;;;4957680;28;20227;-79
2022/10/25 09:44:37;;;;;;;7.53;2.97;;;20.30;99.90;;;;;;4960129;28;20649;-79
2022/10/25 09:47:16;;;;;;;7.43;3.10;;;20.30;99.90;;;;;;4956244;28;20283;-80
2022/10/25 09:49:56;;;;;;;9.07;3.08;;;20.20;99.90;;;;;;4954863;28;20560;-77
2022/10/25 09:52:33;;;;;;;9.57;2.97;;;20.20;99.90;;;;;;4965484;28;20196;-79
2022/10/25 09:55:22;;;;;;;9.85;3.08;;;20.20;99.90;;;;;;4952016;28;20195;-80
2022/10/25 09:57:53;;;;;;;5.60;2.60;;;20.20;99.90;;;;;;4964751;28;20200;-80
2022/10/25 10:00:26;;;;;;;5.05;2.42;;;20.20;99.90;;;;;;4955758;28;20566;-77
2022/10/25 10:02:57;;;;;;;5.95;2.30;;;20.20;99.90;;;;;;4964702;28;20328;-77
2022/10/25 10:05:28;;;;;;;6.88;2.80;;;20.20;99.90;;;;;;4956863;28;20193;-73
2022/10/25 10:07:59;;;;;;;10.13;2.72;;;20.10;99.90;;;;;;4955608;28;20197;-79
2022/10/25 10:10:37;;;;;;;8.10;2.50;;;20.10;99.90;;;;;;4963542;28;20230;-79
2022/10/25 10:13:15;;;;;;;7.65;2.70;;;20.10;99.90;;;;;;4966354;28;20192;-77
2022/10/25 10:15:56;;;;;;;47.92;31.00;;;20.00;99.90;;;;;;4961590;28;20212;-77
2022/10/25 10:18:29;;;;;;;21.15;14.35;;;20.10;99.90;;;;;;4957474;28;20196;-74
2022/10/25 10:21:14;;;;;;;16.95;10.20;;;20.10;99.90;;;;;;4965166;28;20312;-76
2022/10/25 10:23:51;;;;;;;61.30;44.65;;;20.10;99.90;;;;;;4965067;28;20243;-75
2022/10/25 10:26:30;;;;;;;10.95;4.30;;;20.10;99.90;;;;;;4961323;28;20223;-78
2022/10/25 10:29:15;;;;;;;6.50;2.65;;;20.00;99.90;;;;;;4962356;28;20204;-78
2022/10/25 10:31:50;;;;;;;10.52;3.05;;;20.00;99.90;;;;;;4950381;28;20208;-79
2022/10/25 10:34:29;;;;;;;8.82;2.83;;;20.00;99.90;;;;;;4953314;28;20292;-74
2022/10/25 10:37:18;;;;;;;10.15;2.58;;;20.00;99.90;;;;;;4957178;28;20638;-77
2022/10/25 10:39:53;;;;;;;6.65;2.40;;;20.00;99.90;;;;;;4958453;28;20565;-78
2022/10/25 10:42:25;;;;;;;7.38;2.65;;;20.00;99.90;;;;;;4953460;28;20228;-77
2022/10/25 10:45:20;;;;;;;8.38;2.75;;;20.10;99.90;;;;;;4959865;28;20557;-77
2022/10/25 10:48:00;;;;;;;8.25;3.05;;;20.10;99.90;;;;;;4927499;28;20202;-79
2022/10/25 10:50:34;;;;;;;5.97;2.25;;;20.10;99.90;;;;;;4950113;28;20700;-77
2022/10/25 10:53:06;;;;;;;8.35;2.90;;;20.10;99.90;;;;;;4950535;28;20213;-76
2022/10/25 10:55:38;;;;;;;8.05;2.58;;;20.10;99.90;;;;;;4955782;28;20594;-76
2022/10/25 10:58:16;;;;;;;7.85;2.90;;;20.10;99.90;;;;;;4949052;28;20677;-76
2022/10/25 11:00:53;;;;;;;8.68;2.67;;;20.10;99.90;;;;;;4957016;28;20200;-79
2022/10/25 11:03:49;;;;;;;6.72;2.80;;;20.20;99.90;;;;;;4950610;28;20196;-78
2022/10/25 11:06:27;;;;;;;6.75;3.00;;;20.20;99.90;;;;;;4948952;28;20235;-76
2022/10/25 11:09:16;;;;;;;11.75;3.20;;;20.10;99.90;;;;;;4954384;28;20197;-77
2022/10/25 11:12:04;;;;;;;9.45;3.45;;;20.20;99.90;;;;;;4953103;28;20212;-76
2022/10/25 11:14:35;;;;;;;8.77;3.33;;;20.20;99.90;;;;;;4952649;28;20197;-78
2022/10/25 11:17:11;;;;;;;11.68;3.53;;;20.20;99.90;;;;;;4950507;28;20224;-76
2022/10/25 11:20:07;;;;;;;9.15;3.38;;;20.20;99.90;;;;;;4957942;28;20374;-77
2022/10/25 11:22:54;;;;;;;11.05;3.30;;;20.30;99.90;;;;;;4953949;28;20218;-73
2022/10/25 11:25:35;;;;;;;10.43;4.18;;;20.30;99.90;;;;;;4953294;28;20211;-78
2022/10/25 11:28:30;;;;;;;14.40;3.92;;;20.30;99.90;;;;;;4958440;28;20303;-77
2022/10/25 11:31:11;;;;;;;8.65;3.92;;;20.30;99.90;;;;;;4955283;28;20206;-77
2022/10/25 11:33:51;;;;;;;7.63;3.60;;;20.40;99.90;;;;;;4958263;28;20201;-76
2022/10/25 11:36:44;;;;;;;9.07;3.92;;;20.40;99.90;;;;;;4942964;28;20240;-74
2022/10/25 11:39:25;;;;;;;11.38;4.43;;;20.40;99.90;;;;;;4956354;28;20201;-74
2022/10/25 11:42:01;;;;;;;12.75;4.63;;;20.50;99.90;;;;;;4946781;28;20225;-75
2022/10/25 11:45:04;;;;;;;12.88;4.95;;;20.40;99.90;;;;;;4957048;28;20212;-75
2022/10/25 11:47:44;;;;;;;15.10;5.70;;;20.40;99.90;;;;;;4952870;28;20201;-75
2022/10/25 11:50:25;;;;;;;14.70;5.80;;;20.30;99.90;;;;;;4957754;28;20210;-74
2022/10/25 11:53:15;;;;;;;14.43;5.45;;;20.30;99.90;;;;;;4958914;28;20207;-73
2022/10/25 11:55:49;;;;;;;11.60;4.85;;;20.20;99.90;;;;;;4955243;28;20284;-75
2022/10/25 11:58:36;;;;;;;10.48;4.15;;;20.10;99.90;;;;;;4956872;28;20291;-75
2022/10/25 12:01:23;;;;;;;10.15;3.90;;;20.10;99.90;;;;;;4965136;28;20244;-75
2022/10/25 12:04:09;;;;;;;9.43;3.50;;;20.00;99.90;;;;;;4963114;28;20192;-76
2022/10/25 12:06:47;;;;;;;9.05;3.40;;;20.00;99.90;;;;;;4961408;28;20189;-75
2022/10/25 12:09:32;;;;;;;8.30;3.60;;;19.90;99.90;;;;;;4964215;28;20652;-76
2022/10/25 12:12:06;;;;;;;8.45;3.83;;;19.90;99.90;;;;;;4963619;28;20197;-75
2022/10/25 12:14:40;;;;;;;7.82;3.47;;;19.90;99.90;;;;;;4963781;28;20545;-76
2022/10/25 12:17:21;;;;;;;5.45;3.33;;;19.90;99.90;;;;;;4962397;28;20200;-76
2022/10/25 12:19:54;;;;;;;8.05;3.05;;;19.90;99.90;;;;;;4956324;28;20209;-76
2022/10/25 12:22:28;;;;;;;6.35;3.13;;;19.80;99.90;;;;;;4954223;28;20217;-75
2022/10/25 12:25:04;;;;;;;7.03;3.40;;;19.80;99.90;;;;;;4962783;28;20207;-72
2022/10/25 12:27:36;;;;;;;8.35;3.47;;;19.80;99.90;;;;;;4954137;28;20648;-75
2022/10/25 12:30:15;;;;;;;5.97;3.15;;;19.80;99.90;;;;;;4961071;28;20201;-76
2022/10/25 12:32:50;;;;;;;7.22;3.10;;;19.80;99.90;;;;;;4958750;28;20201;-74
2022/10/25 12:35:24;;;;;;;5.93;3.08;;;19.80;99.90;;;;;;4952572;28;20267;-75
2022/10/25 12:37:56;;;;;;;9.48;3.45;;;19.80;99.90;;;;;;4955322;28;20204;-74
2022/10/25 12:40:30;;;;;;;10.00;3.60;;;19.80;99.90;;;;;;4955916;28;20216;-76
2022/10/25 12:43:07;;;;;;;7.40;3.33;;;19.80;99.90;;;;;;4952351;28;20224;-75
2022/10/25 12:45:56;;;;;;;6.43;3.20;;;19.80;99.90;;;;;;4945449;29;20565;-74
2022/10/25 12:48:55;;;;;;;3.88;3.10;;;19.80;99.90;;;;;;4945172;29;20193;-76
2022/10/25 12:51:40;;;;;;;6.55;3.22;;;19.70;99.90;;;;;;4949724;29;20201;-76
2022/10/25 12:54:38;;;;;;;5.80;3.28;;;19.70;99.90;;;;;;4955813;29;20263;-75
2022/10/25 12:57:18;;;;;;;5.25;3.30;;;19.70;99.90;;;;;;4897151;29;20216;-76
2022/10/25 13:00:02;;;;;;;5.47;2.88;;;19.70;99.90;;;;;;4945272;29;20197;-75
2022/10/25 13:03:01;;;;;;;8.85;3.42;;;19.70;99.90;;;;;;4947277;29;20228;-75
2022/10/25 13:05:56;;;;;;;4.72;3.22;;;19.60;99.90;;;;;;4935816;29;20194;-76
2022/10/25 13:08:29;;;;;;;7.93;3.47;;;19.70;99.90;;;;;;4949936;28;20197;-72
2022/10/25 13:11:04;;;;;;;6.53;3.30;;;19.60;99.90;;;;;;4939707;29;20263;-77
2022/10/25 13:13:39;;;;;;;5.47;3.17;;;19.60;99.90;;;;;;4935355;29;20204;-76
2022/10/25 13:16:11;;;;;;;6.43;3.30;;;19.60;99.90;;;;;;4935808;29;20652;-75
2022/10/25 13:18:45;;;;;;;4.32;3.00;;;19.50;99.90;;;;;;4950640;28;20205;-74
2022/10/25 13:21:17;;;;;;;7.35;3.20;;;19.60;99.90;;;;;;4940368;29;20193;-74
2022/10/25 13:24:03;;;;;;;7.07;3.60;;;19.60;99.90;;;;;;4945218;29;20221;-76
2022/10/25 13:26:56;;;;;;;7.10;3.70;;;19.50;99.90;;;;;;4940388;29;20542;-75
2022/10/25 13:29:59;;;;;;;8.65;3.60;;;19.50;99.90;;;;;;4935755;29;20568;-76